CMB566 KPSM-EPGD
Flight info
| Callsign | CMB566 |
|---|---|
| Flight time | N/A |
| Altitude | 39000 |
| Route | CARAY DCT ALLEX N603A SAXAN/M084F390 DCT 54N046W 56N037W 58N028W 59N018W/N0472F390 DCT INNUF/N0476F410 DCT KOKAL DCT RIGVU DCT RUMOG DCT KOVIK P990 AAL L621 KULUD DCT RUMAR L983 DOMAG T240 OGDAV |
| Aircraft | B772/H-SDE2E3FGHIJ5LORVWXY/LB1D1 |
Departure
| Time | N/A |
|---|---|
| Airport | Portsmouth International Airport at Pease (KPSM) |
Arrival
| Time | 2026-04-28 09:41 |
|---|---|
| Airport | Gdańsk Lech Wałęsa Airport (EPGD) |
| Time | Latitude | Longitude | Altitude | Speed | Heading |
|---|---|---|---|---|---|
| 2026-04-28 09:10 | 54.76571 | 17.32522 | 39696 ft | 390 kts | 284° |
| 2026-04-28 09:10 | 54.77389 | 17.28113 | 39226 ft | 382 kts | 301° |
| 2026-04-28 09:11 | 54.78828 | 17.24310 | 38855 ft | 374 kts | 313° |
| 2026-04-28 09:11 | 54.80657 | 17.21170 | 38507 ft | 366 kts | 323° |
| 2026-04-28 09:11 | 54.82764 | 17.18786 | 38187 ft | 360 kts | 334° |
| 2026-04-28 09:11 | 54.85097 | 17.17274 | 37830 ft | 356 kts | 346° |
| 2026-04-28 09:12 | 54.87543 | 17.16755 | 37489 ft | 355 kts | 359° |
| 2026-04-28 09:12 | 54.89990 | 17.17242 | 37177 ft | 355 kts | 11° |
| 2026-04-28 09:12 | 54.92308 | 17.18686 | 36856 ft | 357 kts | 22° |
| 2026-04-28 09:12 | 54.94404 | 17.21028 | 36519 ft | 361 kts | 35° |
| 2026-04-28 09:13 | 54.96154 | 17.24154 | 36143 ft | 361 kts | 47° |
| 2026-04-28 09:13 | 54.97463 | 17.27917 | 35601 ft | 366 kts | 58° |
| 2026-04-28 09:13 | 54.98379 | 17.32057 | 35025 ft | 370 kts | 68° |
| 2026-04-28 09:13 | 54.98769 | 17.36517 | 34422 ft | 379 kts | 86° |
| 2026-04-28 09:14 | 54.98586 | 17.41041 | 33812 ft | 378 kts | 88° |
| 2026-04-28 09:14 | 54.98364 | 17.45551 | 33389 ft | 369 kts | 88° |
| 2026-04-28 09:14 | 54.98157 | 17.49922 | 33034 ft | 358 kts | 87° |
| 2026-04-28 09:14 | 54.97971 | 17.54205 | 32599 ft | 351 kts | 86° |
| 2026-04-28 09:15 | 54.97801 | 17.58419 | 32092 ft | 346 kts | 86° |
| 2026-04-28 09:15 | 54.97638 | 17.62586 | 31562 ft | 343 kts | 86° |
| 2026-04-28 09:15 | 54.97474 | 17.66705 | 31052 ft | 340 kts | 85° |
| 2026-04-28 09:15 | 54.97202 | 17.70787 | 30551 ft | 344 kts | 98° |
| 2026-04-28 09:16 | 54.96194 | 17.74627 | 29919 ft | 356 kts | 120° |
| 2026-04-28 09:16 | 54.94479 | 17.77781 | 29267 ft | 362 kts | 141° |
| 2026-04-28 09:16 | 54.92263 | 17.79835 | 28638 ft | 363 kts | 163° |
| 2026-04-28 09:16 | 54.89799 | 17.80479 | 28023 ft | 355 kts | 187° |
| 2026-04-28 09:17 | 54.87438 | 17.79639 | 27452 ft | 341 kts | 210° |
| 2026-04-28 09:17 | 54.85471 | 17.77575 | 26907 ft | 322 kts | 231° |
| 2026-04-28 09:17 | 54.84063 | 17.74717 | 26370 ft | 304 kts | 249° |
| 2026-04-28 09:17 | 54.83151 | 17.71503 | 25842 ft | 292 kts | 259° |
| 2026-04-28 09:18 | 54.82624 | 17.68185 | 25284 ft | 279 kts | 274° |
| 2026-04-28 09:18 | 54.82649 | 17.64893 | 24602 ft | 271 kts | 283° |
| 2026-04-28 09:18 | 54.82800 | 17.61650 | 23939 ft | 269 kts | 283° |
| 2026-04-28 09:18 | 54.82953 | 17.58432 | 23140 ft | 265 kts | 283° |
| 2026-04-28 09:19 | 54.83094 | 17.55278 | 22370 ft | 261 kts | 283° |
| 2026-04-28 09:19 | 54.83225 | 17.52164 | 21622 ft | 258 kts | 282° |
| 2026-04-28 09:19 | 54.83353 | 17.49043 | 20905 ft | 263 kts | 282° |
| 2026-04-28 09:19 | 54.83440 | 17.46897 | 20471 ft | 273 kts | 282° |
| 2026-04-28 09:20 | 54.83574 | 17.43551 | 19777 ft | 284 kts | 281° |
| 2026-04-28 09:20 | 54.83821 | 17.40153 | 19083 ft | 283 kts | 293° |
| 2026-04-28 09:20 | 54.84681 | 17.37111 | 18443 ft | 282 kts | 309° |
| 2026-04-28 09:20 | 54.86497 | 17.34120 | 17606 ft | 278 kts | 334° |
| 2026-04-28 09:21 | 54.88433 | 17.33153 | 16223 ft | 307 kts | 353° |
| 2026-04-28 09:21 | 54.89927 | 17.33239 | 15321 ft | 327 kts | 7° |
| 2026-04-28 09:21 | 54.92122 | 17.34603 | 14506 ft | 344 kts | 24° |
| 2026-04-28 09:21 | 54.94083 | 17.37073 | 13809 ft | 353 kts | 39° |
| 2026-04-28 09:22 | 54.95607 | 17.40472 | 13138 ft | 363 kts | 56° |
| 2026-04-28 09:22 | 54.96454 | 17.44661 | 12563 ft | 373 kts | 76° |
| 2026-04-28 09:22 | 54.96445 | 17.49203 | 12057 ft | 379 kts | 95° |
| 2026-04-28 09:22 | 54.95594 | 17.53483 | 11528 ft | 378 kts | 114° |
| 2026-04-28 09:23 | 54.94293 | 17.57459 | 10860 ft | 379 kts | 117° |
| 2026-04-28 09:23 | 54.92957 | 17.61394 | 10571 ft | 379 kts | 117° |
| 2026-04-28 09:23 | 54.91610 | 17.65365 | 10418 ft | 380 kts | 117° |
| 2026-04-28 09:23 | 54.90286 | 17.69305 | 10371 ft | 375 kts | 117° |
| 2026-04-28 09:24 | 54.88981 | 17.73224 | 10377 ft | 375 kts | 117° |
| 2026-04-28 09:24 | 54.87678 | 17.77167 | 10381 ft | 377 kts | 117° |
| 2026-04-28 09:24 | 54.86373 | 17.81125 | 10380 ft | 377 kts | 117° |
| 2026-04-28 09:24 | 54.85091 | 17.85007 | 10366 ft | 362 kts | 117° |
| 2026-04-28 09:25 | 54.83870 | 17.88703 | 10360 ft | 344 kts | 116° |
| 2026-04-28 09:25 | 54.82705 | 17.92222 | 10357 ft | 327 kts | 116° |
| 2026-04-28 09:25 | 54.81598 | 17.95561 | 10355 ft | 312 kts | 116° |
| 2026-04-28 09:25 | 54.80522 | 17.98766 | 10358 ft | 304 kts | 119° |
| 2026-04-28 09:26 | 54.79113 | 18.01475 | 10257 ft | 302 kts | 140° |
| 2026-04-28 09:26 | 54.77414 | 18.03612 | 10105 ft | 302 kts | 143° |
| 2026-04-28 09:26 | 54.75717 | 18.05741 | 9948 ft | 299 kts | 142° |
| 2026-04-28 09:26 | 54.74075 | 18.07834 | 9778 ft | 295 kts | 142° |
| 2026-04-28 09:27 | 54.70809 | 18.12061 | 9497 ft | 293 kts | 141° |
| 2026-04-28 09:27 | 54.69182 | 18.14175 | 9327 ft | 292 kts | 141° |
| 2026-04-28 09:27 | 54.67563 | 18.16288 | 9195 ft | 290 kts | 140° |
| 2026-04-28 09:28 | 54.66094 | 18.18649 | 9025 ft | 288 kts | 131° |
| 2026-04-28 09:28 | 54.64761 | 18.21213 | 8900 ft | 287 kts | 129° |
| 2026-04-28 09:28 | 54.63454 | 18.23811 | 8752 ft | 287 kts | 128° |
| 2026-04-28 09:28 | 54.62142 | 18.26409 | 8610 ft | 288 kts | 129° |
| 2026-04-28 09:29 | 54.60821 | 18.28997 | 8463 ft | 288 kts | 129° |
| 2026-04-28 09:29 | 54.59488 | 18.31585 | 8320 ft | 288 kts | 129° |
| 2026-04-28 09:29 | 54.58154 | 18.34155 | 8172 ft | 287 kts | 130° |
| 2026-04-28 09:29 | 54.56820 | 18.36712 | 8027 ft | 286 kts | 130° |
| 2026-04-28 09:30 | 54.55491 | 18.39249 | 7884 ft | 285 kts | 130° |
| 2026-04-28 09:30 | 54.54162 | 18.41780 | 7739 ft | 284 kts | 130° |
| 2026-04-28 09:30 | 54.52842 | 18.44290 | 7594 ft | 282 kts | 130° |
| 2026-04-28 09:30 | 54.51531 | 18.46780 | 7460 ft | 280 kts | 130° |
| 2026-04-28 09:31 | 54.50224 | 18.49257 | 7320 ft | 278 kts | 130° |
| 2026-04-28 09:31 | 54.48922 | 18.51727 | 7048 ft | 284 kts | 130° |
| 2026-04-28 09:31 | 54.47587 | 18.54254 | 6724 ft | 285 kts | 130° |
| 2026-04-28 09:31 | 54.46265 | 18.56747 | 6541 ft | 278 kts | 130° |
| 2026-04-28 09:32 | 54.44978 | 18.59176 | 6383 ft | 271 kts | 130° |
| 2026-04-28 09:32 | 54.43713 | 18.61559 | 6253 ft | 270 kts | 130° |
| 2026-04-28 09:32 | 54.42490 | 18.63981 | 6112 ft | 265 kts | 121° |
| 2026-04-28 09:32 | 54.41660 | 18.66796 | 5985 ft | 267 kts | 109° |
| 2026-04-28 09:33 | 54.40966 | 18.69778 | 5873 ft | 270 kts | 109° |
| 2026-04-28 09:33 | 54.40264 | 18.72751 | 5761 ft | 266 kts | 109° |
| 2026-04-28 09:33 | 54.39560 | 18.75640 | 5598 ft | 259 kts | 110° |
| 2026-04-28 09:33 | 54.38868 | 18.78454 | 5457 ft | 252 kts | 110° |
| 2026-04-28 09:34 | 54.38189 | 18.81186 | 5311 ft | 245 kts | 110° |
| 2026-04-28 09:34 | 54.37518 | 18.83877 | 5211 ft | 246 kts | 110° |
| 2026-04-28 09:34 | 54.36732 | 18.86461 | 5070 ft | 245 kts | 128° |
| 2026-04-28 09:34 | 54.35327 | 18.88098 | 4916 ft | 250 kts | 163° |
| 2026-04-28 09:35 | 54.33605 | 18.88172 | 4679 ft | 249 kts | 199° |
| 2026-04-28 09:35 | 54.32036 | 18.87102 | 4469 ft | 240 kts | 207° |
| 2026-04-28 09:35 | 54.30503 | 18.85956 | 4206 ft | 238 kts | 210° |
| 2026-04-28 09:35 | 54.29309 | 18.84218 | 3994 ft | 218 kts | 248° |
| 2026-04-28 09:36 | 54.29065 | 18.81837 | 3900 ft | 198 kts | 284° |
| 2026-04-28 09:36 | 54.29515 | 18.79681 | 3752 ft | 190 kts | 297° |
| 2026-04-28 09:36 | 54.30037 | 18.77680 | 3606 ft | 184 kts | 296° |
| 2026-04-28 09:36 | 54.30547 | 18.75709 | 3491 ft | 179 kts | 296° |
| 2026-04-28 09:37 | 54.31037 | 18.73752 | 3361 ft | 175 kts | 296° |
| 2026-04-28 09:37 | 54.31492 | 18.71851 | 3191 ft | 173 kts | 295° |
| 2026-04-28 09:37 | 54.31960 | 18.69993 | 3078 ft | 166 kts | 296° |
| 2026-04-28 09:37 | 54.32424 | 18.68185 | 3034 ft | 166 kts | 296° |
| 2026-04-28 09:38 | 54.32871 | 18.66377 | 2738 ft | 159 kts | 296° |
| 2026-04-28 09:38 | 54.33269 | 18.64755 | 2544 ft | 140 kts | 296° |
| 2026-04-28 09:38 | 54.33638 | 18.63278 | 2370 ft | 128 kts | 297° |
| 2026-04-28 09:38 | 54.33970 | 18.61918 | 2213 ft | 121 kts | 297° |
| 2026-04-28 09:39 | 54.34299 | 18.60586 | 2034 ft | 124 kts | 297° |
| 2026-04-28 09:39 | 54.34635 | 18.59210 | 1832 ft | 124 kts | 295° |
| 2026-04-28 09:39 | 54.34970 | 18.57876 | 1693 ft | 122 kts | 297° |
| 2026-04-28 09:39 | 54.35295 | 18.56567 | 1497 ft | 118 kts | 296° |
| 2026-04-28 09:40 | 54.35623 | 18.55260 | 1309 ft | 119 kts | 296° |
| 2026-04-28 09:40 | 54.35933 | 18.53935 | 1124 ft | 125 kts | 295° |
| 2026-04-28 09:40 | 54.36269 | 18.52552 | 946 ft | 126 kts | 295° |
| 2026-04-28 09:40 | 54.36620 | 18.51168 | 767 ft | 127 kts | 295° |
| 2026-04-28 09:41 | 54.36965 | 18.49801 | 622 ft | 122 kts | 295° |
| 2026-04-28 09:41 | 54.37297 | 18.48470 | 503 ft | 119 kts | 295° |
| 2026-04-28 09:41 | 54.37584 | 18.47326 | 467 ft | 85 kts | 294° |
| 2026-04-28 09:41 | 54.37755 | 18.46636 | 461 ft | 37 kts | 294° |
| 2026-04-28 09:42 | 54.37865 | 18.46194 | 461 ft | 37 kts | 293° |
| 2026-04-28 09:42 | 54.37954 | 18.45840 | 460 ft | 30 kts | 293° |
| 2026-04-28 09:42 | 54.38008 | 18.45627 | 460 ft | 15 kts | 300° |
| 2026-04-28 09:42 | 54.38094 | 18.45619 | 459 ft | 14 kts | 32° |
| 2026-04-28 09:43 | 54.38155 | 18.45737 | 459 ft | 14 kts | 92° |
| 2026-04-28 09:43 | 54.38117 | 18.45894 | 460 ft | 14 kts | 112° |
| 2026-04-28 09:43 | 54.38080 | 18.46051 | 464 ft | 14 kts | 112° |
| 2026-04-28 09:43 | 54.38042 | 18.46206 | 464 ft | 14 kts | 113° |
| 2026-04-28 09:44 | 54.38003 | 18.46359 | 464 ft | 14 kts | 114° |
| 2026-04-28 09:44 | 54.37963 | 18.46510 | 461 ft | 14 kts | 115° |
| 2026-04-28 09:44 | 54.37924 | 18.46660 | 464 ft | 14 kts | 114° |
| 2026-04-28 09:44 | 54.37886 | 18.46814 | 464 ft | 14 kts | 112° |
| 2026-04-28 09:45 | 54.37854 | 18.46947 | 464 ft | 10 kts | 111° |
| 2026-04-28 09:45 | 54.37839 | 18.47023 | 464 ft | 4 kts | 96° |
| 2026-04-28 09:45 | 54.37858 | 18.47061 | 462 ft | 4 kts | 25° |
| 2026-04-28 09:45 | 54.37887 | 18.47081 | 464 ft | 4 kts | 23° |
| 2026-04-28 09:46 | 54.37902 | 18.47092 | 464 ft | 0 kts | 23° |
| 2026-04-28 09:46 | 54.37902 | 18.47093 | 464 ft | 0 kts | 23° |